Time;durP1;ratioP1;P1;durP2;ratioP2;P2;SDS_P1;SDS_P2;PMS_P1;PMS_P2;Temp;Humidity;BMP_temperature;BMP_pressure;BME280_temperature;BME280_humidity;BME280_pressure;Samples;Min_cycle;Max_cycle;Signal;HPM_P1;HPM_P2
2021/05/22 00:00:54;;;;;;;2.40;1.40;;;10.20;99.90;;;11.03;100.00;97116.41;5070301;28;20448;-82
2021/05/22 00:03:22;;;;;;;2.40;1.27;;;10.10;99.90;;;10.99;100.00;97109.19;5070289;28;20452;-82
2021/05/22 00:05:52;;;;;;;3.90;1.47;;;10.10;99.90;;;10.98;100.00;97103.16;5069133;28;20875;-83
2021/05/22 00:08:20;;;;;;;2.70;1.40;;;10.10;99.90;;;10.98;100.00;97097.13;5065780;28;20452;-82
2021/05/22 00:10:48;;;;;;;3.83;1.80;;;10.00;99.90;;;11.02;100.00;97099.13;5069785;28;20479;-83
2021/05/22 00:13:16;;;;;;;1.53;1.00;;;10.20;99.90;;;11.07;100.00;97101.09;5066624;28;20447;-82
2021/05/22 00:15:44;;;;;;;4.90;1.57;;;10.20;99.90;;;11.03;100.00;97105.16;5069858;28;20498;-83
2021/05/22 00:18:13;;;;;;;8.60;1.60;;;10.20;99.90;;;10.73;100.00;97099.72;5067610;28;20511;-82
2021/05/22 00:20:41;;;;;;;8.60;2.77;;;9.80;99.90;;;10.71;100.00;97101.75;5063992;28;20467;-82
2021/05/22 00:23:10;;;;;;;3.43;1.37;;;9.70;99.90;;;10.71;100.00;97095.72;5067896;28;20461;-83
2021/05/22 00:25:38;;;;;;;7.67;1.80;;;9.80;99.90;;;10.83;100.00;97089.56;5065069;28;20472;-82
2021/05/22 00:28:07;;;;;;;5.40;1.63;;;9.90;99.90;;;10.73;100.00;97094.47;5065066;28;20468;-83
2021/05/22 00:30:35;;;;;;;4.90;1.90;;;9.80;99.90;;;10.62;100.00;97082.06;5060282;28;20509;-82
2021/05/22 00:33:03;;;;;;;3.00;1.50;;;9.70;99.90;;;10.60;100.00;97084.91;5065578;28;20472;-82
2021/05/22 00:35:31;;;;;;;11.23;2.83;;;9.60;99.90;;;10.71;100.00;97090.47;5063161;28;20866;-83
2021/05/22 00:37:59;;;;;;;1.87;1.37;;;9.80;99.90;;;10.72;100.00;97094.72;5060998;28;20506;-83
2021/05/22 00:40:28;;;;;;;5.03;2.20;;;9.80;99.90;;;10.75;100.00;97099.50;5062443;28;20460;-83
2021/05/22 00:42:57;;;;;;;7.60;2.03;;;9.90;99.90;;;10.73;100.00;97099.72;5066136;28;20455;-82
2021/05/22 00:45:25;;;;;;;3.63;2.00;;;9.90;99.90;;;10.88;100.00;97102.84;5059558;28;20453;-82
2021/05/22 00:47:56;;;;;;;5.50;2.20;;;10.10;99.90;;;10.86;100.00;97086.56;5062066;28;20466;-82
2021/05/22 00:50:28;;;;;;;7.80;2.10;;;10.10;99.90;;;10.90;100.00;97090.34;5063388;28;20468;-82
2021/05/22 00:52:56;;;;;;;7.90;2.73;;;10.20;99.90;;;10.92;100.00;97095.38;5061818;28;20468;-82
2021/05/22 00:55:25;;;;;;;4.90;1.90;;;10.20;99.90;;;10.92;100.00;97085.72;5067605;28;20496;-82
2021/05/22 00:57:55;;;;;;;5.30;1.97;;;10.30;99.90;;;11.00;100.00;97089.88;5065225;28;20468;-83
2021/05/22 01:00:37;;;;;;;7.37;2.50;;;10.30;99.90;;;11.02;100.00;97104.34;5065774;28;21197;-82
2021/05/22 01:03:07;;;;;;;8.30;1.93;;;10.30;99.90;;;11.05;100.00;97103.09;5067933;28;20457;-82
2021/05/22 01:05:36;;;;;;;7.13;2.30;;;10.40;99.90;;;11.08;100.00;97100.88;5063033;28;20506;-82
2021/05/22 01:08:19;;;;;;;11.27;2.43;;;10.30;99.90;;;11.01;100.00;97096.69;5058649;28;20457;-83
2021/05/22 01:10:56;;;;;;;4.70;1.97;;;10.30;99.90;;;11.06;100.00;97099.50;5066581;28;20892;-82
2021/05/22 01:13:26;;;;;;;4.77;1.93;;;10.40;99.90;;;11.04;100.00;97101.50;5066533;28;20452;-82
2021/05/22 01:15:56;;;;;;;7.87;1.87;;;10.40;99.90;;;11.05;100.00;97100.50;5061631;28;20544;-82
2021/05/22 01:18:26;;;;;;;7.30;1.97;;;10.40;99.90;;;11.07;100.00;97101.09;5065234;28;20456;-82
2021/05/22 01:20:57;;;;;;;6.93;2.23;;;10.40;99.90;;;11.02;100.00;97098.31;5066647;28;20484;-82
2021/05/22 01:23:33;;;;;;;6.13;2.67;;;10.40;99.90;;;11.03;100.00;97099.91;5060173;28;20486;-82
2021/05/22 01:26:02;;;;;;;4.60;1.90;;;10.30;99.90;;;11.03;100.00;97099.91;5065221;28;20513;-83
2021/05/22 01:28:34;;;;;;;3.83;2.23;;;10.40;99.90;;;11.02;100.00;97093.06;5066581;28;20460;-82
2021/05/22 01:31:04;;;;;;;10.73;2.40;;;10.40;99.90;;;11.01;100.00;97100.13;5062546;28;20487;-82
2021/05/22 01:33:33;;;;;;;14.23;2.00;;;10.40;99.90;;;11.00;100.00;97092.50;5058989;28;20457;-83
2021/05/22 01:36:01;;;;;;;4.20;1.73;;;10.40;99.90;;;10.98;100.00;97097.94;5062828;28;20575;-82
2021/05/22 01:38:29;;;;;;;8.60;1.83;;;10.40;99.90;;;10.98;100.00;97102.34;5064039;28;20463;-82
2021/05/22 01:40:57;;;;;;;4.53;1.60;;;10.40;99.90;;;10.96;100.00;97102.59;5066254;28;20475;-82
2021/05/22 01:43:26;;;;;;;4.77;1.67;;;10.40;99.90;;;10.91;100.00;97101.59;5065037;28;20485;-82
2021/05/22 01:45:56;;;;;;;13.20;1.83;;;10.30;99.90;;;10.95;100.00;97100.16;5061262;28;20561;-82
2021/05/22 01:48:27;;;;;;;3.10;1.37;;;10.30;99.90;;;10.91;100.00;97101.59;5064164;28;20522;-82
2021/05/22 01:51:02;;;;;;;5.67;1.80;;;10.20;99.90;;;10.90;100.00;97089.53;5067090;28;20484;-82
2021/05/22 01:53:31;;;;;;;2.60;1.47;;;10.20;99.90;;;10.87;100.00;97097.81;5063744;28;20460;-82
2021/05/22 01:56:01;;;;;;;3.43;1.70;;;10.20;99.90;;;10.83;100.00;97102.66;5063089;28;20550;-82
2021/05/22 01:58:30;;;;;;;3.40;1.60;;;10.30;99.90;;;10.81;100.00;97096.03;5067571;28;20452;-82
2021/05/22 02:00:59;;;;;;;3.67;1.30;;;10.20;99.90;;;10.75;100.00;97095.09;5062534;28;20791;-83
2021/05/22 02:03:34;;;;;;;7.23;1.60;;;10.10;99.90;;;10.80;100.00;97110.94;5064926;28;20509;-82
2021/05/22 02:06:06;;;;;;;5.77;1.53;;;10.10;99.90;;;10.80;100.00;97097.84;5064087;28;20553;-82
2021/05/22 02:08:42;;;;;;;6.53;2.07;;;10.20;99.90;;;10.75;100.00;97102.94;5061758;28;21229;-82
2021/05/22 02:11:10;;;;;;;3.63;1.50;;;10.10;99.90;;;10.77;100.00;97100.91;5065369;28;20498;-82
2021/05/22 02:13:42;;;;;;;6.53;1.70;;;10.20;99.90;;;10.79;100.00;97095.47;5066157;28;20467;-82
2021/05/22 02:16:12;;;;;;;5.60;1.57;;;10.20;99.90;;;10.75;100.00;97096.91;5066040;28;20530;-82
2021/05/22 02:18:43;;;;;;;6.87;1.57;;;10.00;99.90;;;10.75;100.00;97099.50;5064223;28;20870;-82
2021/05/22 02:21:11;;;;;;;6.10;1.60;;;10.10;99.90;;;10.77;100.00;97102.69;5067562;28;20526;-82
2021/05/22 02:23:47;;;;;;;4.93;1.60;;;10.10;99.90;;;10.69;100.00;97100.38;5057814;28;21043;-82
2021/05/22 02:26:16;;;;;;;6.10;2.00;;;10.00;99.90;;;10.72;100.00;97097.31;5060517;28;20448;-82
2021/05/22 02:28:48;;;;;;;5.13;1.70;;;10.00;99.90;;;10.78;100.00;97099.09;5065087;28;20464;-82
2021/05/22 02:31:18;;;;;;;3.77;1.50;;;10.10;99.90;;;10.76;100.00;97093.28;5061753;28;20483;-82
2021/05/22 02:33:48;;;;;;;6.03;1.90;;;10.10;99.90;;;10.66;100.00;97091.09;5065907;28;20467;-82
2021/05/22 02:36:17;;;;;;;3.27;1.60;;;10.10;99.90;;;10.59;100.00;97099.00;5064481;28;20456;-82
2021/05/22 02:38:51;;;;;;;4.10;1.70;;;9.90;99.90;;;10.63;100.00;97094.16;5067378;28;20440;-82
2021/05/22 02:41:22;;;;;;;6.43;1.50;;;10.00;99.90;;;10.60;100.00;97091.94;5062292;28;20514;-82
2021/05/22 02:43:56;;;;;;;3.50;1.43;;;9.90;99.90;;;10.59;100.00;97091.16;5060876;28;20460;-82
2021/05/22 02:46:25;;;;;;;6.07;1.90;;;9.90;99.90;;;10.65;100.00;97092.13;5060144;28;20493;-82
2021/05/22 02:48:56;;;;;;;8.37;1.33;;;10.00;99.90;;;10.59;100.00;97093.75;5064230;28;20931;-82
2021/05/22 02:51:27;;;;;;;6.80;1.80;;;10.00;99.90;;;10.57;100.00;97087.97;5064222;28;20496;-82
2021/05/22 02:54:17;;;;;;;1.80;1.10;;;9.90;99.90;;;10.56;100.00;97085.53;5066648;28;20839;-83
2021/05/22 02:56:45;;;;;;;2.30;1.30;;;9.90;99.90;;;10.54;100.00;97085.75;5066911;28;20807;-82
2021/05/22 02:59:16;;;;;;;2.30;1.43;;;9.80;99.90;;;10.63;100.00;97090.72;5070483;28;20456;-82
2021/05/22 03:01:45;;;;;;;10.57;2.13;;;9.90;99.90;;;10.49;100.00;97080.34;5065237;28;20877;-82
2021/05/22 03:04:15;;;;;;;11.93;2.10;;;9.80;99.90;;;10.49;100.00;97080.34;5069435;28;20499;-82
2021/05/22 03:06:44;;;;;;;3.73;1.50;;;9.80;99.90;;;10.51;100.00;97088.00;5069675;28;20475;-82
2021/05/22 03:09:12;;;;;;;4.90;1.33;;;9.80;99.90;;;10.44;100.00;97084.63;5066116;28;20467;-82
2021/05/22 03:11:40;;;;;;;15.07;1.37;;;9.80;99.90;;;10.38;100.00;97088.84;5064395;28;20480;-82
2021/05/22 03:14:08;;;;;;;6.00;1.60;;;9.80;99.90;;;10.44;100.00;97093.25;5067990;28;20456;-82
2021/05/22 03:16:42;;;;;;;8.93;1.70;;;9.90;99.90;;;10.48;100.00;97096.25;5068874;28;20466;-82
2021/05/22 03:19:10;;;;;;;5.17;1.30;;;9.80;99.90;;;10.44;100.00;97089.84;5064956;28;20471;-82
2021/05/22 03:21:39;;;;;;;3.80;1.40;;;9.80;99.90;;;10.34;100.00;97089.50;5066890;28;20472;-82
2021/05/22 03:24:09;;;;;;;6.43;1.77;;;9.80;99.90;;;10.31;100.00;97084.69;5067634;28;20459;-82
2021/05/22 03:26:37;;;;;;;3.03;1.27;;;9.80;99.90;;;10.30;100.00;97077.84;5060611;28;20460;-82
2021/05/22 03:29:06;;;;;;;5.00;1.70;;;9.70;99.90;;;10.28;100.00;97091.13;5067846;28;20852;-82
2021/05/22 03:31:34;;;;;;;8.10;2.40;;;9.60;99.90;;;10.26;100.00;97090.53;5071694;28;20491;-82
2021/05/22 03:34:04;;;;;;;4.60;1.53;;;9.70;99.90;;;10.26;100.00;97087.13;5071540;28;20448;-81
2021/05/22 03:36:32;;;;;;;11.13;1.70;;;9.70;99.90;;;10.25;100.00;97082.91;5071711;28;20481;-82
2021/05/22 03:39:00;;;;;;;9.47;2.00;;;9.70;99.90;;;10.20;100.00;97091.38;5070750;28;20865;-82
2021/05/22 03:41:28;;;;;;;5.60;1.80;;;9.70;99.90;;;10.23;100.00;97095.38;5063698;28;20460;-82
2021/05/22 03:43:56;;;;;;;6.40;1.93;;;9.70;99.90;;;10.15;100.00;97087.75;5066336;28;20479;-82
2021/05/22 03:46:27;;;;;;;5.57;1.63;;;9.60;99.90;;;10.09;100.00;97097.22;5065034;28;20484;-82
2021/05/22 03:48:55;;;;;;;8.43;1.70;;;9.60;99.90;;;10.09;100.00;97087.56;5065330;28;20456;-82
2021/05/22 03:51:24;;;;;;;5.47;1.80;;;9.50;99.90;;;10.12;100.00;97102.03;5069361;28;20873;-82
2021/05/22 03:53:52;;;;;;;11.63;1.97;;;9.60;99.90;;;10.09;100.00;97092.00;5069382;28;20552;-82
2021/05/22 03:56:21;;;;;;;12.90;1.77;;;9.50;99.90;;;10.05;100.00;97093.41;5066815;28;20471;-82
2021/05/22 03:58:49;;;;;;;3.50;1.50;;;9.50;99.90;;;10.11;100.00;97096.00;5062793;28;20621;-81
2021/05/22 04:01:18;;;;;;;6.20;1.80;;;9.50;99.90;;;10.06;100.00;97092.41;5065401;28;20525;-82
2021/05/22 04:03:46;;;;;;;2.97;1.30;;;9.50;99.90;;;10.08;100.00;97098.22;5068945;28;20952;-82
2021/05/22 04:06:15;;;;;;;4.10;2.00;;;9.60;99.90;;;10.11;100.00;97089.97;5063544;28;20836;-82
2021/05/22 04:08:44;;;;;;;3.93;1.80;;;9.60;99.90;;;10.03;100.00;97103.28;5070333;28;20463;-82
2021/05/22 04:11:12;;;;;;;7.17;1.87;;;9.50;99.90;;;10.03;100.00;97105.88;5068108;28;20472;-82
2021/05/22 04:13:40;;;;;;;6.10;1.90;;;9.60;99.90;;;9.97;100.00;97106.69;5061065;28;21011;-82
2021/05/22 04:16:08;;;;;;;12.67;1.80;;;9.50;99.90;;;9.95;100.00;97112.13;5065666;28;20468;-82
2021/05/22 04:18:37;;;;;;;6.97;1.63;;;9.40;99.90;;;10.03;100.00;97119.72;5066173;28;20831;-82
2021/05/22 04:21:05;;;;;;;8.23;1.77;;;9.40;99.90;;;10.01;100.00;97111.31;5066153;28;20464;-82
2021/05/22 04:23:34;;;;;;;13.43;2.83;;;9.40;99.90;;;10.08;100.00;97122.53;5067950;28;20509;-82
2021/05/22 04:26:03;;;;;;;3.73;1.43;;;9.50;99.90;;;10.08;100.00;97116.50;5060823;28;20468;-82
2021/05/22 04:28:31;;;;;;;6.67;1.97;;;9.50;99.90;;;10.03;100.00;97119.72;5064857;28;20452;-82
2021/05/22 04:30:59;;;;;;;7.10;1.83;;;9.40;99.90;;;10.05;100.00;97119.53;5067112;28;20464;-82
2021/05/22 04:33:27;;;;;;;13.67;2.07;;;9.50;99.90;;;10.09;100.00;97128.56;5066630;28;21191;-82
2021/05/22 04:35:55;;;;;;;6.87;1.93;;;9.50;99.90;;;10.09;100.00;97124.16;5068380;28;20474;-82
2021/05/22 04:38:23;;;;;;;8.93;1.67;;;9.50;99.90;;;10.07;100.00;97117.50;5064987;28;20476;-82
2021/05/22 04:40:52;;;;;;;6.73;1.97;;;9.50;99.90;;;10.03;100.00;97124.16;5068897;28;20468;-82
2021/05/22 04:43:20;;;;;;;3.50;1.50;;;9.50;99.90;;;10.03;100.00;97126.78;5068172;28;20467;-82
2021/05/22 04:45:49;;;;;;;3.80;1.63;;;9.60;99.90;;;9.99;100.00;97133.41;5063945;28;20992;-82
2021/05/22 04:48:17;;;;;;;4.60;1.20;;;9.40;99.90;;;9.96;100.00;97128.59;5066515;28;20502;-82
2021/05/22 04:50:46;;;;;;;3.40;1.40;;;9.40;99.90;;;10.00;100.00;97130.59;5057867;28;20472;-82
2021/05/22 04:53:14;;;;;;;6.50;1.90;;;9.50;99.90;;;9.96;100.00;97133.84;5061963;28;20496;-82
2021/05/22 04:55:42;;;;;;;7.27;2.23;;;9.50;99.90;;;9.96;100.00;97136.44;5065990;28;20468;-82
2021/05/22 04:58:12;;;;;;;4.53;1.47;;;9.40;99.90;;;10.01;100.00;97134.00;5067874;28;20468;-82
2021/05/22 05:00:41;;;;;;;4.00;1.70;;;9.40;99.90;;;10.01;100.00;97126.97;5062245;28;20461;-82
2021/05/22 05:03:12;;;;;;;7.37;1.93;;;9.50;99.90;;;10.05;100.00;97125.56;5065628;28;20458;-82
2021/05/22 05:05:42;;;;;;;5.90;1.67;;;9.50;99.90;;;10.02;100.00;97130.38;5064080;28;20525;-82
2021/05/22 05:08:10;;;;;;;6.40;2.10;;;9.50;99.90;;;10.01;100.00;97141.84;5063395;28;20486;-82
2021/05/22 05:10:39;;;;;;;3.97;2.17;;;9.50;99.90;;;9.97;100.00;97136.22;5064193;28;20887;-82
2021/05/22 05:13:07;;;;;;;5.63;1.57;;;9.40;99.90;;;10.00;100.00;97135.81;5063179;28;20500;-82
2021/05/22 05:15:35;;;;;;;3.20;1.40;;;9.50;99.90;;;10.02;100.00;97138.22;5062690;28;20466;-82
2021/05/22 05:18:05;;;;;;;10.03;1.50;;;9.50;99.90;;;9.97;100.00;97132.81;5062264;28;20482;-82
2021/05/22 05:20:33;;;;;;;7.10;1.60;;;9.50;99.90;;;9.95;100.00;97127.81;5067185;28;20846;-82
2021/05/22 05:23:01;;;;;;;10.90;1.80;;;9.30;99.90;;;10.07;100.00;97130.56;5063683;28;20465;-83
2021/05/22 05:25:30;;;;;;;5.10;1.80;;;9.50;99.90;;;10.06;100.00;97129.78;5062826;28;20954;-82
2021/05/22 05:27:58;;;;;;;7.87;1.70;;;9.50;99.90;;;10.12;100.00;97128.13;5063631;28;20468;-82
2021/05/22 05:30:27;;;;;;;7.60;1.87;;;9.50;99.90;;;10.15;100.00;97140.81;5064959;28;20695;-82
2021/05/22 05:32:55;;;;;;;11.33;2.93;;;9.50;99.90;;;10.17;100.00;97130.94;5065876;28;20510;-82
2021/05/22 05:35:24;;;;;;;12.10;2.50;;;9.50;99.90;;;10.21;100.00;97139.97;5055509;28;20477;-82
2021/05/22 05:37:52;;;;;;;3.63;1.53;;;9.70;99.90;;;10.24;100.00;97130.94;5067875;28;20531;-82
2021/05/22 05:40:20;;;;;;;9.63;1.90;;;9.70;99.90;;;10.16;100.00;97134.59;5060228;28;21245;-82
2021/05/22 05:42:50;;;;;;;6.23;1.87;;;9.60;99.90;;;10.15;100.00;97140.81;5066194;28;20463;-82
2021/05/22 05:45:18;;;;;;;17.73;1.77;;;9.40;99.90;;;10.21;100.00;97141.78;5061990;28;20513;-82
2021/05/22 05:47:47;;;;;;;17.83;2.13;;;9.50;99.90;;;10.12;100.00;97143.81;5022401;28;20532;-82
2021/05/22 05:50:15;;;;;;;7.70;1.60;;;9.50;99.90;;;10.15;100.00;97140.00;5023632;28;20465;-81
2021/05/22 05:52:44;;;;;;;5.30;1.80;;;9.60;99.90;;;10.03;100.00;97142.44;5027656;28;20497;-82
2021/05/22 05:55:13;;;;;;;4.70;2.03;;;9.40;99.90;;;10.10;100.00;97138.78;5023669;28;20498;-82
2021/05/22 05:57:41;;;;;;;3.93;2.13;;;9.50;99.90;;;10.10;100.00;97143.19;5024380;28;20462;-82
2021/05/22 06:00:11;;;;;;;6.10;1.63;;;9.40;99.90;;;10.15;100.00;97143.44;5024045;28;20462;-82
2021/05/22 06:02:39;;;;;;;4.33;1.50;;;9.60;99.90;;;10.18;100.00;97148.25;5020760;28;20493;-82
2021/05/22 06:05:09;;;;;;;4.67;1.37;;;9.60;99.90;;;10.11;100.00;97147.44;5024783;28;20501;-82
2021/05/22 06:07:37;;;;;;;7.57;1.87;;;9.50;99.90;;;10.10;100.00;97148.44;5024359;28;20884;-82
2021/05/22 06:10:07;;;;;;;3.00;1.30;;;9.50;99.90;;;10.15;100.00;97138.22;5024081;28;20984;-82
2021/05/22 06:12:36;;;;;;;8.13;1.80;;;9.50;99.90;;;10.15;100.00;97146.03;5023382;28;20497;-82
2021/05/22 06:15:20;;;;;;;9.13;1.90;;;9.60;99.90;;;10.18;100.00;97143.00;5026374;28;20470;-82
2021/05/22 06:17:49;;;;;;;5.90;1.60;;;9.60;99.90;;;10.16;100.00;97155.50;5019971;28;20462;-82
2021/05/22 06:20:17;;;;;;;9.43;2.17;;;9.50;99.90;;;10.24;100.00;97151.84;5022868;28;20462;-81
2021/05/22 06:22:45;;;;;;;7.63;2.07;;;9.60;99.90;;;10.23;100.00;97156.28;5025604;28;20455;-81
2021/05/22 06:25:15;;;;;;;3.50;1.67;;;9.60;99.90;;;10.27;100.00;97160.09;5023331;28;20492;-82
2021/05/22 06:27:44;;;;;;;5.80;1.90;;;9.70;99.90;;;10.23;100.00;97156.28;5019957;28;20468;-81
2021/05/22 06:30:13;;;;;;;9.97;2.07;;;9.60;99.90;;;10.30;100.00;97158.84;5020840;28;20552;-82
2021/05/22 06:32:41;;;;;;;5.37;1.57;;;9.60;99.90;;;10.27;100.00;97157.47;5018012;28;20488;-81
2021/05/22 06:35:10;;;;;;;11.20;2.80;;;9.60;99.90;;;10.32;100.00;97155.03;5025718;28;20508;-81
2021/05/22 06:37:38;;;;;;;6.73;2.17;;;9.70;99.90;;;10.30;100.00;97162.28;5021617;28;20462;-81
2021/05/22 06:40:08;;;;;;;8.47;2.07;;;9.70;99.90;;;10.29;100.00;97152.81;5022908;28;20462;-81
2021/05/22 06:42:37;;;;;;;9.97;2.03;;;9.60;99.90;;;10.33;100.00;97161.88;5024988;28;20474;-82
2021/05/22 06:45:10;;;;;;;7.50;2.37;;;9.70;99.90;;;10.35;100.00;97159.03;5022365;28;20512;-82
2021/05/22 06:47:38;;;;;;;6.00;1.80;;;9.80;99.90;;;10.34;100.00;97155.63;5060833;28;20489;-82
2021/05/22 06:50:08;;;;;;;20.03;1.90;;;9.80;99.90;;;10.32;100.00;97159.44;5065130;28;20464;-81
2021/05/22 06:52:36;;;;;;;6.97;2.10;;;9.70;99.90;;;10.27;100.00;97167.13;5063978;28;20490;-81
2021/05/22 06:55:06;;;;;;;14.20;2.37;;;9.60;99.90;;;10.30;100.00;97161.47;5066626;28;20460;-81
2021/05/22 06:57:35;;;;;;;4.97;1.50;;;9.70;99.90;;;10.34;100.00;97162.66;5063932;28;20472;-82
2021/05/22 07:00:06;;;;;;;13.43;2.33;;;9.80;99.90;;;10.41;100.00;97158.22;5064325;28;20460;-82
2021/05/22 07:02:35;;;;;;;6.17;1.73;;;9.80;99.90;;;10.42;100.00;97158.00;5064696;28;20456;-81
2021/05/22 07:05:03;;;;;;;9.43;2.20;;;9.80;99.90;;;10.40;100.00;97170.47;5064605;28;20857;-82
2021/05/22 07:07:32;;;;;;;7.60;1.40;;;9.80;99.90;;;10.49;100.00;97171.84;5066168;28;20533;-81
2021/05/22 07:10:00;;;;;;;6.57;2.07;;;9.90;99.90;;;10.55;100.00;97168.38;5066580;28;20513;-82
2021/05/22 07:12:28;;;;;;;6.77;1.93;;;10.00;99.90;;;10.55;100.00;97168.38;5063117;28;20871;-82
2021/05/22 07:14:57;;;;;;;5.10;1.83;;;10.10;99.90;;;10.50;100.00;97168.22;5060181;28;20471;-82
2021/05/22 07:17:27;;;;;;;8.73;1.73;;;10.00;99.90;;;10.53;100.00;97186.09;5061316;28;20460;-81
2021/05/22 07:19:55;;;;;;;6.50;1.87;;;10.00;99.90;;;10.52;100.00;97183.69;5062208;28;20476;-81
2021/05/22 07:22:25;;;;;;;11.77;2.00;;;10.00;99.90;;;10.59;100.00;97177.41;5065393;28;20472;-82
2021/05/22 07:24:53;;;;;;;3.20;1.43;;;10.00;99.90;;;10.59;100.00;97182.66;5066867;28;20464;-82
2021/05/22 07:27:22;;;;;;;6.67;1.50;;;10.00;99.90;;;10.66;100.00;97187.84;5062988;28;20468;-82
2021/05/22 07:29:51;;;;;;;6.23;1.80;;;10.10;99.90;;;10.72;100.00;97181.00;5066626;28;20546;-82
2021/05/22 07:32:19;;;;;;;5.47;2.23;;;10.20;99.90;;;10.68;100.00;97185.84;5060246;28;20456;-82
2021/05/22 07:34:48;;;;;;;4.33;1.57;;;10.10;99.90;;;10.75;100.00;97180.56;5057458;28;20537;-81
2021/05/22 07:37:17;;;;;;;6.50;2.30;;;10.20;99.90;;;10.75;100.00;97185.81;5061668;28;20463;-82
2021/05/22 07:39:45;;;;;;;11.50;3.93;;;10.10;99.90;;;10.73;100.00;97178.16;5061027;28;20461;-81
2021/05/22 07:42:13;;;;;;;10.20;2.60;;;10.10;99.90;;;10.76;100.00;97179.56;5062575;28;20463;-82
2021/05/22 07:44:41;;;;;;;6.33;2.07;;;10.10;99.90;;;10.89;100.00;97197.81;5061917;28;20487;-82
2021/05/22 07:47:09;;;;;;;7.97;3.30;;;10.30;99.90;;;10.93;100.00;97193.75;5066572;28;20883;-82
2021/05/22 07:49:37;;;;;;;4.83;2.03;;;10.30;99.90;;;11.03;100.00;97188.88;5063455;28;20472;-82
2021/05/22 07:52:10;;;;;;;8.13;1.90;;;10.50;99.90;;;11.08;100.00;97194.25;5068439;28;20448;-82
2021/05/22 07:54:40;;;;;;;6.40;2.17;;;10.60;99.90;;;11.02;100.00;97182.03;5070664;28;20487;-82
2021/05/22 07:57:12;;;;;;;4.57;2.10;;;10.50;99.90;;;11.04;100.00;97185.22;5071572;28;21100;-82
2021/05/22 07:59:41;;;;;;;6.93;1.70;;;10.40;99.90;;;11.07;100.00;97179.59;5071546;28;20466;-81
2021/05/22 08:02:10;;;;;;;4.10;1.73;;;10.50;99.90;;;11.14;100.00;97196.03;5071855;28;20459;-83
2021/05/22 08:04:38;;;;;;;5.53;1.73;;;10.60;99.90;;;11.11;100.00;97191.22;5070968;28;20498;-82
2021/05/22 08:07:07;;;;;;;5.20;1.60;;;10.60;99.90;;;11.08;100.00;97181.16;5066913;28;20465;-82
2021/05/22 08:09:35;;;;;;;3.87;1.97;;;10.50;99.90;;;11.08;100.00;97191.63;5066625;28;20455;-82
2021/05/22 08:12:04;;;;;;;4.67;1.50;;;10.50;99.90;;;11.02;100.00;97187.25;5063591;28;20532;-82
2021/05/22 08:14:32;;;;;;;5.50;1.43;;;10.40;99.90;;;11.01;100.00;97190.88;5066752;28;20598;-82
2021/05/22 08:17:01;;;;;;;5.73;1.37;;;10.40;99.90;;;11.05;100.00;97186.81;5070891;28;21017;-82
2021/05/22 08:19:29;;;;;;;2.03;1.03;;;10.30;99.90;;;11.15;100.00;97176.69;5068934;28;21300;-79
2021/05/22 08:21:57;;;;;;;55.07;24.77;;;10.60;99.90;;;11.21;100.00;97183.69;5063024;28;20465;-79
2021/05/22 08:24:26;;;;;;;5.43;1.70;;;10.60;99.90;;;11.13;100.00;97183.97;5061703;28;20483;-80
2021/05/22 08:26:55;;;;;;;5.63;1.43;;;10.50;99.90;;;11.16;100.00;97190.59;5064367;28;20495;-79
2021/05/22 08:29:43;;;;;;;5.33;1.47;;;10.60;99.90;;;11.15;100.00;97197.63;5068969;28;20429;-80
2021/05/22 08:32:11;;;;;;;6.73;1.53;;;10.50;99.90;;;11.09;100.00;97185.41;5068969;28;20457;-80
2021/05/22 08:34:39;;;;;;;3.70;1.23;;;10.40;99.90;;;11.18;100.00;97186.72;5070272;28;20882;-80
2021/05/22 08:37:08;;;;;;;7.73;1.93;;;10.60;99.90;;;11.24;100.00;97169.41;5070138;28;20457;-80
2021/05/22 08:39:43;;;;;;;5.63;1.63;;;10.60;99.90;;;11.26;100.00;97185.69;5070547;28;20440;-80
2021/05/22 08:42:15;;;;;;;8.63;1.67;;;10.70;99.90;;;11.28;100.00;97178.44;5069982;28;20467;-79
2021/05/22 08:44:43;;;;;;;3.30;1.70;;;10.70;99.90;;;11.19;100.00;97200.63;5065511;28;20464;-78
2021/05/22 08:47:12;;;;;;;8.63;1.70;;;10.60;99.90;;;11.22;100.00;97202.81;5061584;28;20539;-79
2021/05/22 08:49:41;;;;;;;2.90;1.20;;;10.70;99.90;;;11.21;100.00;97186.31;5064328;28;20460;-79
2021/05/22 08:52:13;;;;;;;6.60;2.00;;;10.60;99.90;;;11.23;100.00;97179.06;5066870;28;20456;-79
2021/05/22 08:54:42;;;;;;;7.03;1.83;;;10.70;99.90;;;11.25;100.00;97191.91;5064465;28;20499;-79
2021/05/22 08:57:12;;;;;;;6.83;1.77;;;10.60;99.90;;;11.24;100.00;97199.00;5062131;28;21052;-80
2021/05/22 08:59:42;;;;;;;4.53;1.50;;;10.70;99.90;;;11.25;100.00;97203.19;5061053;28;20929;-79
2021/05/22 09:02:13;;;;;;;5.63;1.70;;;10.80;99.90;;;11.28;100.00;97202.78;5064663;28;20457;-79
2021/05/22 09:05:09;;;;;;;3.87;1.93;;;10.80;99.90;;;11.31;100.00;97223.31;5066782;28;20553;-80
2021/05/22 09:07:40;;;;;;;9.20;1.70;;;10.80;99.90;;;11.42;100.00;97219.97;5065255;28;20466;-79
2021/05/22 09:10:14;;;;;;;7.20;1.60;;;10.80;99.90;;;11.44;100.00;97223.22;5065185;28;20460;-78
2021/05/22 09:12:44;;;;;;;2.13;1.10;;;10.80;99.90;;;11.51;100.00;97225.78;5059924;28;20941;-79
2021/05/22 09:15:15;;;;;;;7.90;2.73;;;10.90;99.90;;;11.55;100.00;97225.16;5063539;28;21030;-80
2021/05/22 09:17:52;;;;;;;2.07;1.20;;;10.90;99.90;;;11.61;100.00;97233.94;5064817;28;20522;-79
2021/05/22 09:20:25;;;;;;;3.37;1.30;;;10.90;99.90;;;11.67;100.00;97224.44;5060136;28;20467;-79
2021/05/22 09:23:04;;;;;;;3.70;1.20;;;11.10;99.90;;;11.68;100.00;97239.13;5063504;28;20453;-78
2021/05/22 09:25:36;;;;;;;6.50;1.50;;;11.10;99.90;;;11.71;100.00;97238.75;5062881;28;20461;-79
2021/05/22 09:28:06;;;;;;;11.33;1.60;;;11.00;99.90;;;11.79;100.00;97231.44;5068669;28;20589;-79
2021/05/22 09:30:36;;;;;;;11.20;1.77;;;11.10;99.90;;;11.80;100.00;97242.72;5066544;28;20527;-79
2021/05/22 09:33:12;;;;;;;2.73;1.63;;;11.10;99.90;;;11.85;100.00;97237.63;5062565;28;20475;-79
2021/05/22 09:35:42;;;;;;;16.67;9.67;;;11.20;99.90;;;11.91;100.00;97247.22;5067654;28;20452;-80
2021/05/22 09:38:10;;;;;;;7.67;1.70;;;11.30;99.90;;;11.96;100.00;97235.09;5062580;28;20457;-79
2021/05/22 09:40:39;;;;;;;8.20;1.70;;;11.30;99.90;;;11.95;100.00;97249.22;5067107;28;20456;-79
2021/05/22 09:43:09;;;;;;;9.03;1.77;;;11.40;99.90;;;11.80;100.00;97246.09;5061881;28;20487;-79
2021/05/22 09:45:40;;;;;;;3.90;1.30;;;11.20;99.90;;;11.84;100.00;97249.91;5067562;28;20464;-79
2021/05/22 09:48:16;;;;;;;8.93;1.60;;;11.30;99.90;;;11.79;100.00;97259.44;5066802;28;20462;-79
2021/05/22 09:50:46;;;;;;;6.93;2.20;;;11.20;99.90;;;11.75;100.00;97266.91;5065721;28;20825;-79
2021/05/22 09:53:38;;;;;;;5.13;1.80;;;11.10;99.90;;;11.86;100.00;97265.44;5065759;28;20514;-80
2021/05/22 09:56:19;;;;;;;7.27;1.87;;;11.30;99.90;;;11.96;100.00;97273.59;5057257;28;20479;-80
2021/05/22 09:58:50;;;;;;;7.00;2.30;;;11.40;99.90;;;11.96;100.00;97268.34;5062739;28;20467;-79
2021/05/22 10:01:22;;;;;;;7.60;1.60;;;11.40;99.90;;;11.94;100.00;97273.78;5066259;28;20956;-79
2021/05/22 10:03:53;;;;;;;8.87;1.70;;;11.40;99.90;;;11.99;100.00;97260.88;5068898;28;20523;-79
2021/05/22 10:06:22;;;;;;;3.83;1.50;;;11.30;99.90;;;12.09;100.00;97257.75;5063499;28;20529;-79
2021/05/22 10:08:50;;;;;;;8.00;1.63;;;11.40;99.90;;;12.19;100.00;97275.59;5065362;28;20471;-79
2021/05/22 10:11:19;;;;;;;6.37;1.50;;;11.50;99.90;;;12.07;100.00;97270.28;5067238;28;21147;-79
2021/05/22 10:13:49;;;;;;;6.97;1.47;;;11.30;99.90;;;12.19;100.00;97279.03;5064942;28;20495;-79
2021/05/22 10:16:18;;;;;;;6.03;1.80;;;11.50;99.90;;;12.19;100.00;97281.66;5064724;28;20463;-79
2021/05/22 10:18:47;;;;;;;3.70;1.47;;;11.50;99.90;;;12.25;100.00;97280.78;5066130;28;20824;-79
2021/05/22 10:21:15;;;;;;;5.67;1.40;;;11.70;99.90;;;12.28;100.00;97275.13;5066422;28;20460;-79
2021/05/22 10:23:44;;;;;;;3.77;1.83;;;11.70;99.90;;;12.34;100.00;97284.75;5066359;28;20845;-78
2021/05/22 10:26:14;;;;;;;9.10;1.60;;;11.80;99.90;;;12.43;100.00;97274.75;5066682;28;20505;-80